sensor_id;sensor_type;location;lat;lon;timestamp;P1;durP1;ratioP1;P2;durP2;ratioP2
24517;SDS011;12678;51.336;12.406;2024-02-26T00:01:37;15.52;;;6.97;;
24517;SDS011;12678;51.336;12.406;2024-02-26T00:04:03;16.90;;;8.05;;
24517;SDS011;12678;51.336;12.406;2024-02-26T00:06:29;16.25;;;7.60;;
24517;SDS011;12678;51.336;12.406;2024-02-26T00:08:55;14.27;;;8.15;;
24517;SDS011;12678;51.336;12.406;2024-02-26T00:11:21;19.85;;;8.10;;
24517;SDS011;12678;51.336;12.406;2024-02-26T00:13:47;14.35;;;8.57;;
24517;SDS011;12678;51.336;12.406;2024-02-26T00:16:12;25.45;;;10.77;;
24517;SDS011;12678;51.336;12.406;2024-02-26T00:18:38;24.30;;;9.55;;
24517;SDS011;12678;51.336;12.406;2024-02-26T00:21:03;24.02;;;8.55;;
24517;SDS011;12678;51.336;12.406;2024-02-26T00:23:29;19.35;;;9.13;;
24517;SDS011;12678;51.336;12.406;2024-02-26T00:25:55;17.23;;;8.35;;
24517;SDS011;12678;51.336;12.406;2024-02-26T00:28:21;22.65;;;8.00;;
24517;SDS011;12678;51.336;12.406;2024-02-26T00:30:46;20.77;;;8.95;;
24517;SDS011;12678;51.336;12.406;2024-02-26T00:33:12;22.58;;;9.40;;
24517;SDS011;12678;51.336;12.406;2024-02-26T00:35:39;19.83;;;9.02;;
24517;SDS011;12678;51.336;12.406;2024-02-26T00:38:04;20.83;;;8.70;;
24517;SDS011;12678;51.336;12.406;2024-02-26T00:40:31;20.13;;;9.15;;
24517;SDS011;12678;51.336;12.406;2024-02-26T00:42:56;22.08;;;8.93;;
24517;SDS011;12678;51.336;12.406;2024-02-26T00:45:22;21.95;;;9.90;;
24517;SDS011;12678;51.336;12.406;2024-02-26T00:47:48;23.55;;;10.10;;
24517;SDS011;12678;51.336;12.406;2024-02-26T00:50:14;21.13;;;9.07;;
24517;SDS011;12678;51.336;12.406;2024-02-26T00:52:39;23.05;;;8.68;;
24517;SDS011;12678;51.336;12.406;2024-02-26T00:55:05;25.67;;;9.50;;
24517;SDS011;12678;51.336;12.406;2024-02-26T00:57:32;19.73;;;9.25;;
24517;SDS011;12678;51.336;12.406;2024-02-26T00:59:57;21.63;;;10.27;;
24517;SDS011;12678;51.336;12.406;2024-02-26T01:02:24;21.65;;;9.30;;
24517;SDS011;12678;51.336;12.406;2024-02-26T01:04:49;22.33;;;9.75;;
24517;SDS011;12678;51.336;12.406;2024-02-26T01:07:15;23.75;;;10.57;;
24517;SDS011;12678;51.336;12.406;2024-02-26T01:09:40;17.35;;;8.38;;
24517;SDS011;12678;51.336;12.406;2024-02-26T01:12:07;21.35;;;9.77;;
24517;SDS011;12678;51.336;12.406;2024-02-26T01:14:32;25.33;;;10.05;;
24517;SDS011;12678;51.336;12.406;2024-02-26T01:16:58;24.98;;;10.30;;
24517;SDS011;12678;51.336;12.406;2024-02-26T01:19:24;25.10;;;9.27;;
24517;SDS011;12678;51.336;12.406;2024-02-26T01:21:49;25.50;;;10.02;;
24517;SDS011;12678;51.336;12.406;2024-02-26T01:24:15;22.95;;;10.00;;
24517;SDS011;12678;51.336;12.406;2024-02-26T01:26:40;29.90;;;10.65;;
24517;SDS011;12678;51.336;12.406;2024-02-26T01:29:06;21.83;;;10.07;;
24517;SDS011;12678;51.336;12.406;2024-02-26T01:31:32;26.00;;;10.18;;
24517;SDS011;12678;51.336;12.406;2024-02-26T01:33:57;25.98;;;10.60;;
24517;SDS011;12678;51.336;12.406;2024-02-26T01:36:23;26.80;;;10.85;;
24517;SDS011;12678;51.336;12.406;2024-02-26T01:38:48;21.38;;;10.25;;
24517;SDS011;12678;51.336;12.406;2024-02-26T01:41:14;28.50;;;11.02;;
24517;SDS011;12678;51.336;12.406;2024-02-26T01:43:39;18.45;;;10.13;;
24517;SDS011;12678;51.336;12.406;2024-02-26T01:46:07;20.92;;;9.85;;
24517;SDS011;12678;51.336;12.406;2024-02-26T01:48:39;29.02;;;11.50;;
24517;SDS011;12678;51.336;12.406;2024-02-26T01:51:08;22.20;;;10.15;;
24517;SDS011;12678;51.336;12.406;2024-02-26T01:53:34;23.05;;;9.32;;
24517;SDS011;12678;51.336;12.406;2024-02-26T01:56:00;21.40;;;9.70;;
24517;SDS011;12678;51.336;12.406;2024-02-26T01:58:26;20.05;;;9.93;;
24517;SDS011;12678;51.336;12.406;2024-02-26T02:00:52;22.55;;;10.07;;
24517;SDS011;12678;51.336;12.406;2024-02-26T02:03:18;28.83;;;11.25;;
24517;SDS011;12678;51.336;12.406;2024-02-26T02:05:43;27.10;;;9.98;;
24517;SDS011;12678;51.336;12.406;2024-02-26T02:08:12;22.90;;;9.77;;
24517;SDS011;12678;51.336;12.406;2024-02-26T02:10:39;23.38;;;10.50;;
24517;SDS011;12678;51.336;12.406;2024-02-26T02:13:05;25.30;;;9.70;;
24517;SDS011;12678;51.336;12.406;2024-02-26T02:15:31;20.58;;;10.40;;
24517;SDS011;12678;51.336;12.406;2024-02-26T02:17:57;24.58;;;10.77;;
24517;SDS011;12678;51.336;12.406;2024-02-26T02:20:35;21.10;;;9.82;;
24517;SDS011;12678;51.336;12.406;2024-02-26T02:23:01;21.10;;;10.18;;
24517;SDS011;12678;51.336;12.406;2024-02-26T02:25:27;23.17;;;10.05;;
24517;SDS011;12678;51.336;12.406;2024-02-26T02:27:56;26.60;;;10.02;;
24517;SDS011;12678;51.336;12.406;2024-02-26T02:30:26;23.83;;;9.60;;
24517;SDS011;12678;51.336;12.406;2024-02-26T02:32:54;18.63;;;9.38;;
24517;SDS011;12678;51.336;12.406;2024-02-26T02:35:21;23.95;;;10.23;;
24517;SDS011;12678;51.336;12.406;2024-02-26T02:37:47;23.83;;;9.82;;
24517;SDS011;12678;51.336;12.406;2024-02-26T02:40:12;21.15;;;9.13;;
24517;SDS011;12678;51.336;12.406;2024-02-26T02:42:39;19.80;;;9.00;;
24517;SDS011;12678;51.336;12.406;2024-02-26T02:45:05;19.92;;;9.20;;
24517;SDS011;12678;51.336;12.406;2024-02-26T02:47:31;21.75;;;9.63;;
24517;SDS011;12678;51.336;12.406;2024-02-26T02:49:56;20.48;;;9.68;;
24517;SDS011;12678;51.336;12.406;2024-02-26T02:52:22;23.83;;;9.07;;
24517;SDS011;12678;51.336;12.406;2024-02-26T02:54:47;20.55;;;9.35;;
24517;SDS011;12678;51.336;12.406;2024-02-26T02:57:13;23.50;;;9.65;;
24517;SDS011;12678;51.336;12.406;2024-02-26T02:59:38;17.35;;;7.72;;
24517;SDS011;12678;51.336;12.406;2024-02-26T03:02:04;23.08;;;9.00;;
24517;SDS011;12678;51.336;12.406;2024-02-26T03:04:31;18.63;;;9.13;;
24517;SDS011;12678;51.336;12.406;2024-02-26T03:06:57;14.48;;;7.60;;
24517;SDS011;12678;51.336;12.406;2024-02-26T03:09:22;14.40;;;7.10;;
24517;SDS011;12678;51.336;12.406;2024-02-26T03:11:48;15.75;;;7.88;;
24517;SDS011;12678;51.336;12.406;2024-02-26T03:14:14;18.30;;;8.32;;
24517;SDS011;12678;51.336;12.406;2024-02-26T03:16:39;18.55;;;8.50;;
24517;SDS011;12678;51.336;12.406;2024-02-26T03:19:05;15.90;;;7.82;;
24517;SDS011;12678;51.336;12.406;2024-02-26T03:21:31;17.75;;;8.27;;
24517;SDS011;12678;51.336;12.406;2024-02-26T03:23:56;22.17;;;9.48;;
24517;SDS011;12678;51.336;12.406;2024-02-26T03:26:22;17.90;;;8.85;;
24517;SDS011;12678;51.336;12.406;2024-02-26T03:28:48;23.83;;;10.05;;
24517;SDS011;12678;51.336;12.406;2024-02-26T03:31:13;19.02;;;9.02;;
24517;SDS011;12678;51.336;12.406;2024-02-26T03:33:39;24.13;;;10.00;;
24517;SDS011;12678;51.336;12.406;2024-02-26T03:36:05;24.17;;;9.80;;
24517;SDS011;12678;51.336;12.406;2024-02-26T03:38:32;22.02;;;9.75;;
24517;SDS011;12678;51.336;12.406;2024-02-26T03:40:58;20.98;;;10.25;;
24517;SDS011;12678;51.336;12.406;2024-02-26T03:43:23;22.48;;;10.70;;
24517;SDS011;12678;51.336;12.406;2024-02-26T03:45:49;25.95;;;10.27;;
24517;SDS011;12678;51.336;12.406;2024-02-26T03:48:15;25.25;;;11.57;;
24517;SDS011;12678;51.336;12.406;2024-02-26T03:50:40;24.35;;;11.02;;
24517;SDS011;12678;51.336;12.406;2024-02-26T03:53:06;26.88;;;12.02;;
24517;SDS011;12678;51.336;12.406;2024-02-26T03:55:34;29.48;;;11.57;;
24517;SDS011;12678;51.336;12.406;2024-02-26T03:57:59;28.20;;;11.60;;
24517;SDS011;12678;51.336;12.406;2024-02-26T04:00:25;33.30;;;12.05;;
24517;SDS011;12678;51.336;12.406;2024-02-26T04:02:51;29.33;;;12.52;;
24517;SDS011;12678;51.336;12.406;2024-02-26T04:05:16;28.83;;;11.75;;
24517;SDS011;12678;51.336;12.406;2024-02-26T04:07:42;30.92;;;13.60;;
24517;SDS011;12678;51.336;12.406;2024-02-26T04:10:11;32.67;;;12.77;;
24517;SDS011;12678;51.336;12.406;2024-02-26T04:12:40;28.73;;;12.68;;
24517;SDS011;12678;51.336;12.406;2024-02-26T04:15:09;29.48;;;13.48;;
24517;SDS011;12678;51.336;12.406;2024-02-26T04:17:36;31.35;;;12.80;;
24517;SDS011;12678;51.336;12.406;2024-02-26T04:20:02;31.20;;;13.68;;
24517;SDS011;12678;51.336;12.406;2024-02-26T04:22:28;33.88;;;14.82;;
24517;SDS011;12678;51.336;12.406;2024-02-26T04:24:54;40.13;;;14.77;;
24517;SDS011;12678;51.336;12.406;2024-02-26T04:27:19;33.30;;;13.95;;
24517;SDS011;12678;51.336;12.406;2024-02-26T04:29:45;29.35;;;14.13;;
24517;SDS011;12678;51.336;12.406;2024-02-26T04:32:10;33.58;;;14.45;;
24517;SDS011;12678;51.336;12.406;2024-02-26T04:34:36;35.97;;;16.77;;
24517;SDS011;12678;51.336;12.406;2024-02-26T04:37:02;30.98;;;14.55;;
24517;SDS011;12678;51.336;12.406;2024-02-26T04:39:27;30.92;;;14.10;;
24517;SDS011;12678;51.336;12.406;2024-02-26T04:41:53;44.38;;;16.50;;
24517;SDS011;12678;51.336;12.406;2024-02-26T04:44:18;37.50;;;15.15;;
24517;SDS011;12678;51.336;12.406;2024-02-26T04:46:44;39.28;;;16.88;;
24517;SDS011;12678;51.336;12.406;2024-02-26T04:49:09;35.70;;;15.52;;
24517;SDS011;12678;51.336;12.406;2024-02-26T04:51:35;34.38;;;15.73;;
24517;SDS011;12678;51.336;12.406;2024-02-26T04:54:02;40.30;;;16.23;;
24517;SDS011;12678;51.336;12.406;2024-02-26T04:56:27;42.15;;;15.88;;
24517;SDS011;12678;51.336;12.406;2024-02-26T04:58:53;36.47;;;16.15;;
24517;SDS011;12678;51.336;12.406;2024-02-26T05:01:18;37.70;;;15.65;;
24517;SDS011;12678;51.336;12.406;2024-02-26T05:03:44;45.47;;;16.48;;
24517;SDS011;12678;51.336;12.406;2024-02-26T05:06:10;34.45;;;15.90;;
24517;SDS011;12678;51.336;12.406;2024-02-26T05:08:35;32.35;;;14.75;;
24517;SDS011;12678;51.336;12.406;2024-02-26T05:11:02;39.63;;;15.75;;
24517;SDS011;12678;51.336;12.406;2024-02-26T05:13:28;40.03;;;16.48;;
24517;SDS011;12678;51.336;12.406;2024-02-26T05:15:54;40.47;;;15.40;;
24517;SDS011;12678;51.336;12.406;2024-02-26T05:18:20;39.20;;;16.95;;
24517;SDS011;12678;51.336;12.406;2024-02-26T05:20:45;32.58;;;14.60;;
24517;SDS011;12678;51.336;12.406;2024-02-26T05:23:11;37.03;;;15.98;;
24517;SDS011;12678;51.336;12.406;2024-02-26T05:25:36;45.67;;;15.13;;
24517;SDS011;12678;51.336;12.406;2024-02-26T05:28:02;34.10;;;16.23;;
24517;SDS011;12678;51.336;12.406;2024-02-26T05:30:28;37.78;;;16.23;;
24517;SDS011;12678;51.336;12.406;2024-02-26T05:32:54;39.70;;;16.02;;
24517;SDS011;12678;51.336;12.406;2024-02-26T05:35:19;40.25;;;16.70;;
24517;SDS011;12678;51.336;12.406;2024-02-26T05:37:45;36.88;;;15.55;;
24517;SDS011;12678;51.336;12.406;2024-02-26T05:40:11;33.80;;;15.25;;
24517;SDS011;12678;51.336;12.406;2024-02-26T05:42:36;50.72;;;16.45;;
24517;SDS011;12678;51.336;12.406;2024-02-26T05:45:02;35.55;;;14.35;;
24517;SDS011;12678;51.336;12.406;2024-02-26T05:47:32;38.78;;;15.93;;
24517;SDS011;12678;51.336;12.406;2024-02-26T05:49:57;44.25;;;16.83;;
24517;SDS011;12678;51.336;12.406;2024-02-26T05:52:25;33.50;;;14.63;;
24517;SDS011;12678;51.336;12.406;2024-02-26T05:54:53;37.28;;;15.65;;
24517;SDS011;12678;51.336;12.406;2024-02-26T05:57:19;44.53;;;16.00;;
24517;SDS011;12678;51.336;12.406;2024-02-26T05:59:44;37.50;;;15.05;;
24517;SDS011;12678;51.336;12.406;2024-02-26T06:02:10;38.63;;;14.55;;
24517;SDS011;12678;51.336;12.406;2024-02-26T06:04:36;39.75;;;16.20;;
24517;SDS011;12678;51.336;12.406;2024-02-26T06:07:01;35.72;;;15.73;;
24517;SDS011;12678;51.336;12.406;2024-02-26T06:09:27;42.53;;;15.48;;
24517;SDS011;12678;51.336;12.406;2024-02-26T06:11:52;36.83;;;15.30;;
24517;SDS011;12678;51.336;12.406;2024-02-26T06:14:18;31.75;;;14.32;;
24517;SDS011;12678;51.336;12.406;2024-02-26T06:16:44;35.10;;;15.70;;
24517;SDS011;12678;51.336;12.406;2024-02-26T06:19:10;36.92;;;14.80;;
24517;SDS011;12678;51.336;12.406;2024-02-26T06:21:35;35.85;;;14.57;;
24517;SDS011;12678;51.336;12.406;2024-02-26T06:24:01;34.67;;;15.60;;
24517;SDS011;12678;51.336;12.406;2024-02-26T06:26:27;43.47;;;15.30;;
24517;SDS011;12678;51.336;12.406;2024-02-26T06:28:55;40.65;;;13.23;;
24517;SDS011;12678;51.336;12.406;2024-02-26T06:31:21;29.75;;;14.88;;
24517;SDS011;12678;51.336;12.406;2024-02-26T06:33:48;37.30;;;14.13;;
24517;SDS011;12678;51.336;12.406;2024-02-26T06:36:14;41.25;;;14.13;;
24517;SDS011;12678;51.336;12.406;2024-02-26T06:38:40;36.80;;;13.88;;
24517;SDS011;12678;51.336;12.406;2024-02-26T06:41:06;37.97;;;13.95;;
24517;SDS011;12678;51.336;12.406;2024-02-26T06:43:31;30.33;;;13.18;;
24517;SDS011;12678;51.336;12.406;2024-02-26T06:45:57;29.48;;;13.57;;
24517;SDS011;12678;51.336;12.406;2024-02-26T06:48:23;30.80;;;14.13;;
24517;SDS011;12678;51.336;12.406;2024-02-26T06:50:49;37.50;;;14.15;;
24517;SDS011;12678;51.336;12.406;2024-02-26T06:53:15;30.60;;;13.55;;
24517;SDS011;12678;51.336;12.406;2024-02-26T06:55:41;30.60;;;12.68;;
24517;SDS011;12678;51.336;12.406;2024-02-26T06:58:07;35.38;;;14.65;;
24517;SDS011;12678;51.336;12.406;2024-02-26T07:00:33;29.88;;;12.68;;
24517;SDS011;12678;51.336;12.406;2024-02-26T07:02:59;29.95;;;13.27;;
24517;SDS011;12678;51.336;12.406;2024-02-26T07:05:24;30.52;;;13.85;;
24517;SDS011;12678;51.336;12.406;2024-02-26T07:07:50;26.88;;;12.70;;
24517;SDS011;12678;51.336;12.406;2024-02-26T07:10:16;28.15;;;13.25;;
24517;SDS011;12678;51.336;12.406;2024-02-26T07:12:41;33.33;;;12.70;;
24517;SDS011;12678;51.336;12.406;2024-02-26T07:15:07;30.83;;;13.05;;
24517;SDS011;12678;51.336;12.406;2024-02-26T07:17:34;35.13;;;13.65;;
24517;SDS011;12678;51.336;12.406;2024-02-26T07:19:59;26.98;;;13.52;;
24517;SDS011;12678;51.336;12.406;2024-02-26T07:22:25;27.05;;;12.77;;
24517;SDS011;12678;51.336;12.406;2024-02-26T07:24:50;30.52;;;13.52;;
24517;SDS011;12678;51.336;12.406;2024-02-26T07:27:16;28.77;;;13.05;;
24517;SDS011;12678;51.336;12.406;2024-02-26T07:29:43;26.20;;;12.18;;
24517;SDS011;12678;51.336;12.406;2024-02-26T07:32:08;28.42;;;12.32;;
24517;SDS011;12678;51.336;12.406;2024-02-26T07:34:35;26.05;;;12.30;;
24517;SDS011;12678;51.336;12.406;2024-02-26T07:37:02;23.90;;;11.43;;
24517;SDS011;12678;51.336;12.406;2024-02-26T07:39:28;26.33;;;11.90;;
24517;SDS011;12678;51.336;12.406;2024-02-26T07:41:53;32.22;;;13.93;;
24517;SDS011;12678;51.336;12.406;2024-02-26T07:44:19;29.55;;;13.15;;
24517;SDS011;12678;51.336;12.406;2024-02-26T07:46:44;25.73;;;12.23;;
24517;SDS011;12678;51.336;12.406;2024-02-26T07:49:11;26.35;;;10.95;;
24517;SDS011;12678;51.336;12.406;2024-02-26T07:51:37;28.35;;;11.57;;
24517;SDS011;12678;51.336;12.406;2024-02-26T07:54:02;22.83;;;11.05;;
24517;SDS011;12678;51.336;12.406;2024-02-26T07:56:28;23.00;;;11.07;;
24517;SDS011;12678;51.336;12.406;2024-02-26T07:58:53;20.80;;;10.65;;
24517;SDS011;12678;51.336;12.406;2024-02-26T08:01:19;20.88;;;10.43;;
24517;SDS011;12678;51.336;12.406;2024-02-26T08:03:44;24.02;;;10.35;;
24517;SDS011;12678;51.336;12.406;2024-02-26T08:06:10;27.45;;;11.32;;
24517;SDS011;12678;51.336;12.406;2024-02-26T08:08:36;23.17;;;10.82;;
24517;SDS011;12678;51.336;12.406;2024-02-26T08:11:01;19.33;;;10.35;;
24517;SDS011;12678;51.336;12.406;2024-02-26T08:13:27;28.30;;;12.63;;
24517;SDS011;12678;51.336;12.406;2024-02-26T08:15:52;25.38;;;11.13;;
24517;SDS011;12678;51.336;12.406;2024-02-26T08:18:18;20.85;;;10.35;;
24517;SDS011;12678;51.336;12.406;2024-02-26T08:20:44;17.30;;;10.05;;
24517;SDS011;12678;51.336;12.406;2024-02-26T08:23:10;23.27;;;10.25;;
24517;SDS011;12678;51.336;12.406;2024-02-26T08:25:35;28.52;;;10.35;;
24517;SDS011;12678;51.336;12.406;2024-02-26T08:28:01;22.90;;;9.70;;
24517;SDS011;12678;51.336;12.406;2024-02-26T08:30:27;15.57;;;9.02;;
24517;SDS011;12678;51.336;12.406;2024-02-26T08:32:52;21.35;;;9.68;;
24517;SDS011;12678;51.336;12.406;2024-02-26T08:35:18;18.77;;;9.80;;
24517;SDS011;12678;51.336;12.406;2024-02-26T08:37:44;20.05;;;9.73;;
24517;SDS011;12678;51.336;12.406;2024-02-26T08:40:11;21.10;;;10.48;;
24517;SDS011;12678;51.336;12.406;2024-02-26T08:42:37;21.00;;;8.77;;
24517;SDS011;12678;51.336;12.406;2024-02-26T08:45:02;18.85;;;9.35;;
24517;SDS011;12678;51.336;12.406;2024-02-26T08:47:28;18.50;;;8.32;;
24517;SDS011;12678;51.336;12.406;2024-02-26T08:49:54;21.73;;;9.55;;
24517;SDS011;12678;51.336;12.406;2024-02-26T08:52:19;21.67;;;9.73;;
24517;SDS011;12678;51.336;12.406;2024-02-26T08:54:46;14.55;;;8.40;;
24517;SDS011;12678;51.336;12.406;2024-02-26T08:57:12;18.92;;;9.55;;
24517;SDS011;12678;51.336;12.406;2024-02-26T08:59:38;18.70;;;9.10;;
24517;SDS011;12678;51.336;12.406;2024-02-26T09:02:05;15.38;;;7.45;;
24517;SDS011;12678;51.336;12.406;2024-02-26T09:04:30;15.93;;;8.15;;
24517;SDS011;12678;51.336;12.406;2024-02-26T09:06:56;21.15;;;8.13;;
24517;SDS011;12678;51.336;12.406;2024-02-26T09:09:21;19.17;;;7.32;;
24517;SDS011;12678;51.336;12.406;2024-02-26T09:11:47;21.67;;;8.25;;
24517;SDS011;12678;51.336;12.406;2024-02-26T09:14:17;14.93;;;7.80;;
24517;SDS011;12678;51.336;12.406;2024-02-26T09:16:43;16.05;;;7.93;;
24517;SDS011;12678;51.336;12.406;2024-02-26T09:19:08;17.52;;;7.40;;
24517;SDS011;12678;51.336;12.406;2024-02-26T09:21:34;17.77;;;8.10;;
24517;SDS011;12678;51.336;12.406;2024-02-26T09:24:00;19.83;;;8.15;;
24517;SDS011;12678;51.336;12.406;2024-02-26T09:26:25;13.50;;;6.75;;
24517;SDS011;12678;51.336;12.406;2024-02-26T09:28:51;24.95;;;7.40;;
24517;SDS011;12678;51.336;12.406;2024-02-26T09:31:17;22.95;;;8.23;;
24517;SDS011;12678;51.336;12.406;2024-02-26T09:33:43;17.45;;;8.20;;
24517;SDS011;12678;51.336;12.406;2024-02-26T09:36:08;12.93;;;6.35;;
24517;SDS011;12678;51.336;12.406;2024-02-26T09:38:36;10.68;;;6.18;;
24517;SDS011;12678;51.336;12.406;2024-02-26T09:41:03;11.48;;;6.47;;
24517;SDS011;12678;51.336;12.406;2024-02-26T09:43:34;9.52;;;4.47;;
24517;SDS011;12678;51.336;12.406;2024-02-26T09:46:00;11.18;;;5.38;;
24517;SDS011;12678;51.336;12.406;2024-02-26T09:48:26;15.10;;;5.57;;
24517;SDS011;12678;51.336;12.406;2024-02-26T09:50:53;13.77;;;4.88;;
24517;SDS011;12678;51.336;12.406;2024-02-26T09:53:18;14.18;;;5.20;;
24517;SDS011;12678;51.336;12.406;2024-02-26T09:55:46;9.68;;;5.32;;
24517;SDS011;12678;51.336;12.406;2024-02-26T09:58:12;8.43;;;4.47;;
24517;SDS011;12678;51.336;12.406;2024-02-26T10:00:43;8.02;;;4.60;;
24517;SDS011;12678;51.336;12.406;2024-02-26T10:03:15;8.35;;;4.35;;
24517;SDS011;12678;51.336;12.406;2024-02-26T10:05:41;13.13;;;4.60;;
24517;SDS011;12678;51.336;12.406;2024-02-26T10:08:08;20.05;;;5.25;;
24517;SDS011;12678;51.336;12.406;2024-02-26T10:10:35;16.35;;;5.15;;
24517;SDS011;12678;51.336;12.406;2024-02-26T10:13:03;12.57;;;4.78;;
24517;SDS011;12678;51.336;12.406;2024-02-26T10:15:35;9.68;;;5.00;;
24517;SDS011;12678;51.336;12.406;2024-02-26T10:18:04;9.00;;;4.45;;
24517;SDS011;12678;51.336;12.406;2024-02-26T10:20:33;7.35;;;4.05;;
24517;SDS011;12678;51.336;12.406;2024-02-26T10:23:00;12.32;;;4.60;;
24517;SDS011;12678;51.336;12.406;2024-02-26T10:25:28;8.63;;;3.97;;
24517;SDS011;12678;51.336;12.406;2024-02-26T10:27:53;8.13;;;4.20;;
24517;SDS011;12678;51.336;12.406;2024-02-26T10:30:20;10.05;;;3.97;;
24517;SDS011;12678;51.336;12.406;2024-02-26T10:32:47;9.05;;;3.63;;
24517;SDS011;12678;51.336;12.406;2024-02-26T10:35:14;8.32;;;4.30;;
24517;SDS011;12678;51.336;12.406;2024-02-26T10:37:42;7.72;;;4.10;;
24517;SDS011;12678;51.336;12.406;2024-02-26T10:40:11;9.50;;;4.30;;
24517;SDS011;12678;51.336;12.406;2024-02-26T10:42:38;15.40;;;3.83;;
24517;SDS011;12678;51.336;12.406;2024-02-26T10:45:04;8.40;;;3.83;;
24517;SDS011;12678;51.336;12.406;2024-02-26T10:47:31;10.82;;;4.40;;
24517;SDS011;12678;51.336;12.406;2024-02-26T10:49:58;10.00;;;3.95;;
24517;SDS011;12678;51.336;12.406;2024-02-26T10:52:24;13.38;;;4.50;;
24517;SDS011;12678;51.336;12.406;2024-02-26T10:54:53;7.35;;;3.92;;
24517;SDS011;12678;51.336;12.406;2024-02-26T10:57:21;8.73;;;3.75;;
24517;SDS011;12678;51.336;12.406;2024-02-26T10:59:48;13.35;;;3.97;;
24517;SDS011;12678;51.336;12.406;2024-02-26T11:02:16;11.98;;;4.22;;
24517;SDS011;12678;51.336;12.406;2024-02-26T11:04:42;10.82;;;4.40;;
24517;SDS011;12678;51.336;12.406;2024-02-26T11:07:09;12.30;;;4.07;;
24517;SDS011;12678;51.336;12.406;2024-02-26T11:09:35;8.25;;;4.18;;
24517;SDS011;12678;51.336;12.406;2024-02-26T11:12:07;8.93;;;4.35;;
24517;SDS011;12678;51.336;12.406;2024-02-26T11:14:36;10.85;;;4.97;;
24517;SDS011;12678;51.336;12.406;2024-02-26T11:17:03;13.55;;;4.50;;
24517;SDS011;12678;51.336;12.406;2024-02-26T11:19:30;10.10;;;4.47;;
24517;SDS011;12678;51.336;12.406;2024-02-26T11:21:58;8.35;;;4.68;;
24517;SDS011;12678;51.336;12.406;2024-02-26T11:24:26;8.18;;;4.22;;
24517;SDS011;12678;51.336;12.406;2024-02-26T11:26:53;7.28;;;3.95;;
24517;SDS011;12678;51.336;12.406;2024-02-26T11:29:27;13.23;;;4.72;;
24517;SDS011;12678;51.336;12.406;2024-02-26T11:31:58;10.52;;;4.90;;
24517;SDS011;12678;51.336;12.406;2024-02-26T11:34:25;14.68;;;5.22;;
24517;SDS011;12678;51.336;12.406;2024-02-26T11:36:51;10.07;;;4.90;;
24517;SDS011;12678;51.336;12.406;2024-02-26T11:39:17;16.27;;;5.45;;
24517;SDS011;12678;51.336;12.406;2024-02-26T11:41:43;8.57;;;4.63;;
24517;SDS011;12678;51.336;12.406;2024-02-26T11:44:09;16.33;;;4.78;;
24517;SDS011;12678;51.336;12.406;2024-02-26T11:46:41;19.08;;;5.10;;
24517;SDS011;12678;51.336;12.406;2024-02-26T11:51:52;14.00;;;4.78;;
24517;SDS011;12678;51.336;12.406;2024-02-26T11:57:38;9.13;;;4.15;;
24517;SDS011;12678;51.336;12.406;2024-02-26T12:00:14;11.63;;;5.10;;
24517;SDS011;12678;51.336;12.406;2024-02-26T12:02:47;14.73;;;5.57;;
24517;SDS011;12678;51.336;12.406;2024-02-26T12:05:22;12.25;;;5.80;;
24517;SDS011;12678;51.336;12.406;2024-02-26T12:07:59;17.27;;;5.32;;
24517;SDS011;12678;51.336;12.406;2024-02-26T12:10:32;9.95;;;4.75;;
24517;SDS011;12678;51.336;12.406;2024-02-26T12:18:07;8.07;;;5.57;;
24517;SDS011;12678;51.336;12.406;2024-02-26T12:20:34;18.35;;;5.72;;
24517;SDS011;12678;51.336;12.406;2024-02-26T12:23:01;10.65;;;5.88;;
24517;SDS011;12678;51.336;12.406;2024-02-26T12:25:29;9.75;;;5.63;;
24517;SDS011;12678;51.336;12.406;2024-02-26T12:27:56;9.82;;;5.85;;
24517;SDS011;12678;51.336;12.406;2024-02-26T12:30:22;15.07;;;5.93;;
24517;SDS011;12678;51.336;12.406;2024-02-26T12:32:49;15.63;;;6.30;;
24517;SDS011;12678;51.336;12.406;2024-02-26T12:35:16;14.98;;;5.57;;
24517;SDS011;12678;51.336;12.406;2024-02-26T12:37:42;12.48;;;5.63;;
24517;SDS011;12678;51.336;12.406;2024-02-26T12:40:09;17.52;;;6.22;;
24517;SDS011;12678;51.336;12.406;2024-02-26T12:42:35;14.00;;;5.93;;
24517;SDS011;12678;51.336;12.406;2024-02-26T12:45:14;16.92;;;5.40;;
24517;SDS011;12678;51.336;12.406;2024-02-26T12:47:42;13.60;;;5.72;;
24517;SDS011;12678;51.336;12.406;2024-02-26T12:50:08;12.77;;;5.65;;
24517;SDS011;12678;51.336;12.406;2024-02-26T12:52:36;18.08;;;7.38;;
24517;SDS011;12678;51.336;12.406;2024-02-26T12:55:06;12.90;;;6.57;;
24517;SDS011;12678;51.336;12.406;2024-02-26T12:57:34;14.20;;;5.95;;
24517;SDS011;12678;51.336;12.406;2024-02-26T13:00:02;12.35;;;6.32;;
24517;SDS011;12678;51.336;12.406;2024-02-26T13:02:29;11.82;;;5.35;;
24517;SDS011;12678;51.336;12.406;2024-02-26T13:04:56;12.38;;;5.85;;
24517;SDS011;12678;51.336;12.406;2024-02-26T13:07:22;15.60;;;7.07;;
24517;SDS011;12678;51.336;12.406;2024-02-26T13:09:48;11.70;;;5.15;;
24517;SDS011;12678;51.336;12.406;2024-02-26T13:12:13;9.07;;;4.72;;
24517;SDS011;12678;51.336;12.406;2024-02-26T13:14:39;8.60;;;5.35;;
24517;SDS011;12678;51.336;12.406;2024-02-26T13:17:05;18.98;;;6.78;;
24517;SDS011;12678;51.336;12.406;2024-02-26T13:19:31;17.13;;;6.03;;
24517;SDS011;12678;51.336;12.406;2024-02-26T13:22:03;14.57;;;5.68;;
24517;SDS011;12678;51.336;12.406;2024-02-26T13:24:35;12.82;;;6.57;;
24517;SDS011;12678;51.336;12.406;2024-02-26T13:27:01;11.00;;;5.57;;
24517;SDS011;12678;51.336;12.406;2024-02-26T13:29:30;14.93;;;5.93;;
24517;SDS011;12678;51.336;12.406;2024-02-26T13:31:58;17.70;;;6.78;;
24517;SDS011;12678;51.336;12.406;2024-02-26T13:34:28;13.85;;;6.13;;
24517;SDS011;12678;51.336;12.406;2024-02-26T13:36:55;14.10;;;5.80;;
24517;SDS011;12678;51.336;12.406;2024-02-26T13:39:25;12.98;;;5.38;;
24517;SDS011;12678;51.336;12.406;2024-02-26T13:41:52;15.82;;;6.03;;
24517;SDS011;12678;51.336;12.406;2024-02-26T13:44:19;12.77;;;5.88;;
24517;SDS011;12678;51.336;12.406;2024-02-26T13:46:45;15.90;;;5.70;;
24517;SDS011;12678;51.336;12.406;2024-02-26T13:49:11;13.18;;;5.85;;
24517;SDS011;12678;51.336;12.406;2024-02-26T13:51:38;11.15;;;6.13;;
24517;SDS011;12678;51.336;12.406;2024-02-26T13:54:04;10.63;;;5.82;;
24517;SDS011;12678;51.336;12.406;2024-02-26T13:56:30;10.38;;;5.28;;
24517;SDS011;12678;51.336;12.406;2024-02-26T13:58:56;10.57;;;6.30;;
24517;SDS011;12678;51.336;12.406;2024-02-26T14:01:23;13.52;;;5.72;;
24517;SDS011;12678;51.336;12.406;2024-02-26T14:03:49;13.02;;;5.63;;
24517;SDS011;12678;51.336;12.406;2024-02-26T14:06:14;17.23;;;5.53;;
24517;SDS011;12678;51.336;12.406;2024-02-26T14:08:40;9.85;;;5.13;;
24517;SDS011;12678;51.336;12.406;2024-02-26T14:11:06;12.20;;;5.38;;
24517;SDS011;12678;51.336;12.406;2024-02-26T14:13:31;12.27;;;5.40;;
24517;SDS011;12678;51.336;12.406;2024-02-26T14:15:57;14.95;;;4.75;;
24517;SDS011;12678;51.336;12.406;2024-02-26T14:20:58;10.60;;;5.00;;
24517;SDS011;12678;51.336;12.406;2024-02-26T14:23:24;11.00;;;5.60;;
24517;SDS011;12678;51.336;12.406;2024-02-26T14:25:49;11.50;;;5.38;;
24517;SDS011;12678;51.336;12.406;2024-02-26T14:28:15;9.50;;;4.47;;